Ingram, TX (78025)

4:10 PM CDT on April 19, 2015 (GMT -0500)
HIGH POINTE | | Change Station
CLOSE
Current Station
Personal Weather Station
Location: Kerrville, TX
Elevation: 1965 ft
Nearby Weather Stations

Elev 1965 ft 30.11 °N, 99.23 °W | Updated 17 seconds ago

Clear
Clear
83.8 °F
Feels Like 81 °F
N
2.9
Wind Variable Wind from NNE
Gusts 7.4 mph

Today
High -- | Low -- °F
--% Chance of Precip.
Yesterday
High -- | Low -- °F
Precip. -- in
7:05 AM 8:06 PM
New Moon, 2% visible
Pressure 29.81 in
Visibility 10.0 miles
Clouds Clear
Heat Index 81 °F
Dew Point 26 °F
Humidity 12%
Rainfall 0.00 in
Snow Depth Not available.
UV 6.0 out of 12
Pollen 8.00 out of 12
Air Quality Not available.
Flu Activity Local Activity
METAR KERV 192055Z AUTO 26011G18KT 10SM CLR 29/04 A2981 RMK AO2 T02910038

More Conditions Fewer Conditions

Pressure 29.81 in
Visibility 10.0 miles
Clouds Clear
Heat Index 81 °F
Dew Point 26 °F
Humidity 12%
Rainfall 0.00 in
Snow Depth Not available.
UV 6.0 out of 12
Pollen 8.00 out of 12
Air Quality Not available.
Flu Activity Local Activity
METAR KERV 192055Z AUTO 26011G18KT 10SM CLR 29/04 A2981 RMK AO2 T02910038

More Conditions Fewer Conditions

10-Day Weather Forecast

Almanac

Astronomy

Apr. 19, 2015 Rise Set
Actual Time
Civil Twilight
Nautical Twilight
Astronomical Twilight
Moon
Length of Visible Light
Length of Day
Tomorrow will be .
, % of the Moon is Illuminated

Today's Extremes

State Highs State Lows

Community

WunderPhotos

Upload Photos

1,814,985 photos uploaded!

WunderBlogs® & News

Nearby

Air Quality

  Air Quality AQ Index Pollutant
Not available.

Snow Depth

Station Depth Elevation

Earthquake Activity

City Distance Mag. Time & Date
Minimum magnitude displayed is 2.5.

Coastal Water Temperatures

Place Temperature

Stations

Nearby Weather Stations

Station Location Temp. Windchill Dew Point Humidity Wind Precip. Elev Updated Type